createdAt,value
2023-03-17T00:00:30.373Z,51.85
2023-03-17T00:03:49.559Z,41.73
2023-03-17T00:10:19.629Z,53.45
2023-03-17T00:13:33.467Z,49.10
2023-03-17T00:16:48.679Z,48.73
2023-03-17T00:20:00.701Z,47.40
2023-03-17T00:23:18.505Z,47.93
2023-03-17T00:29:31.759Z,43.93
2023-03-17T00:32:45.693Z,45.98
2023-03-17T00:35:59.551Z,46.03
2023-03-17T00:39:19.432Z,48.88
2023-03-17T00:42:31.721Z,49.43
2023-03-17T00:45:44.646Z,52.00
2023-03-17T00:48:57.013Z,56.13
2023-03-17T00:52:09.722Z,52.60
2023-03-17T00:55:22.811Z,55.98
2023-03-17T00:58:37.673Z,54.40
2023-03-17T01:01:50.215Z,54.05
2023-03-17T01:05:06.726Z,44.48
2023-03-17T01:08:17.920Z,55.35
2023-03-17T01:11:29.980Z,53.35
2023-03-17T01:14:42.086Z,55.28
2023-03-17T01:17:55.996Z,49.48
2023-03-17T01:21:09.666Z,48.10
2023-03-17T01:24:21.973Z,55.65
2023-03-17T01:27:36.585Z,52.33
2023-03-17T01:30:50.384Z,45.60
2023-03-17T01:34:04.338Z,53.48
2023-03-17T01:37:17.253Z,55.30
2023-03-17T01:40:40.377Z,55.73
2023-03-17T01:43:55.224Z,55.85
2023-03-17T01:47:07.248Z,55.58
2023-03-17T01:50:19.812Z,61.93
2023-03-17T01:53:32.656Z,58.03
2023-03-17T01:56:49.231Z,60.18
2023-03-17T02:00:05.987Z,61.98
2023-03-17T02:03:20.618Z,59.85
2023-03-17T02:06:34.926Z,58.15
2023-03-17T02:09:48.694Z,51.95
2023-03-17T02:13:05.954Z,60.53
2023-03-17T02:16:21.995Z,52.88
2023-03-17T02:19:35.380Z,49.80
2023-03-17T02:22:47.425Z,59.85
2023-03-17T02:26:01.108Z,50.98
2023-03-17T02:29:13.220Z,56.73
2023-03-17T02:32:26.922Z,50.68
2023-03-17T02:35:41.612Z,52.50
2023-03-17T02:38:54.369Z,54.93
2023-03-17T02:42:07.175Z,51.25
2023-03-17T02:45:20.747Z,52.28
2023-03-17T02:48:34.240Z,57.60
2023-03-17T02:51:46.187Z,48.45
2023-03-17T02:54:58.647Z,51.10
2023-03-17T02:58:10.855Z,53.03
2023-03-17T03:01:23.112Z,49.73
2023-03-17T03:04:36.204Z,50.35
2023-03-17T03:07:48.304Z,50.88
2023-03-17T03:11:02.668Z,47.48
2023-03-17T03:14:15.951Z,47.90
2023-03-17T03:17:28.364Z,47.65
2023-03-17T03:20:40.384Z,45.35
2023-03-17T03:23:52.511Z,49.58
2023-03-17T03:27:04.582Z,49.98
2023-03-17T03:30:20.864Z,49.55
2023-03-17T03:33:34.012Z,46.98
2023-03-17T03:36:46.552Z,46.18
2023-03-17T03:39:59.084Z,42.58
2023-03-17T03:43:22.300Z,47.88
2023-03-17T03:46:26.843Z,52.23
2023-03-17T03:49:38.919Z,55.90
2023-03-17T03:52:51.202Z,58.28
2023-03-17T03:56:04.408Z,48.70
2023-03-17T03:59:16.743Z,57.20
2023-03-17T04:02:28.669Z,63.13
2023-03-17T04:05:41.096Z,56.90
2023-03-17T04:08:53.128Z,63.88
2023-03-17T04:12:04.991Z,67.63
2023-03-17T04:15:24.312Z,74.25
2023-03-17T04:18:36.408Z,78.83
2023-03-17T04:21:49.009Z,81.85
2023-03-17T04:25:01.125Z,78.75
2023-03-17T04:28:14.345Z,83.85
2023-03-17T04:31:26.884Z,79.30
2023-03-17T04:34:39.107Z,80.88
2023-03-17T04:37:51.728Z,82.65
2023-03-17T04:41:04.106Z,88.80
2023-03-17T04:44:18.734Z,77.53
2023-03-17T04:47:31.295Z,75.08
2023-03-17T04:50:43.326Z,80.83
2023-03-17T04:53:54.157Z,86.30
2023-03-17T04:57:09.225Z,87.00
2023-03-17T05:00:26.964Z,82.15
2023-03-17T05:03:39.995Z,73.68
2023-03-17T05:06:52.049Z,75.68
2023-03-17T05:10:04.321Z,83.80
2023-03-17T05:13:16.813Z,81.98
2023-03-17T05:16:29.021Z,74.10
2023-03-17T05:19:41.437Z,86.03
2023-03-17T05:22:53.746Z,86.18
2023-03-17T05:26:06.585Z,81.95
2023-03-17T05:29:19.391Z,73.30
2023-03-17T05:32:32.356Z,78.83
2023-03-17T05:35:44.562Z,79.58
2023-03-17T05:38:56.833Z,242.83
2023-03-17T05:42:09.346Z,127.38
2023-03-17T05:45:22.246Z,91.28
2023-03-17T05:48:35.173Z,74.05
2023-03-17T05:51:47.609Z,78.48
2023-03-17T05:54:59.985Z,77.23
2023-03-17T05:58:13.129Z,73.10
2023-03-17T06:01:25.347Z,73.08
2023-03-17T06:04:38.387Z,76.63
2023-03-17T06:07:54.931Z,199.45
2023-03-17T06:11:05.032Z,92.72
2023-03-17T06:14:17.271Z,81.47
2023-03-17T06:17:29.932Z,71.53
2023-03-17T06:20:42.253Z,75.43
2023-03-17T06:23:54.683Z,87.75
2023-03-17T06:27:06.953Z,125.65
2023-03-17T06:30:21.156Z,108.28
2023-03-17T06:33:34.554Z,68.40
2023-03-17T06:36:46.997Z,75.93
2023-03-17T06:40:01.037Z,72.48
2023-03-17T06:43:13.553Z,65.58
2023-03-17T06:46:25.643Z,63.03
2023-03-17T06:49:38.327Z,68.43
2023-03-17T06:52:50.435Z,52.78
2023-03-17T06:56:03.203Z,56.78
2023-03-17T06:59:15.805Z,53.08
2023-03-17T07:02:28.145Z,52.90
2023-03-17T07:05:40.527Z,55.75
2023-03-17T07:08:53.664Z,46.58
2023-03-17T07:12:06.710Z,50.33
2023-03-17T07:15:22.826Z,46.83
2023-03-17T07:18:36.162Z,48.50
2023-03-17T07:21:50.395Z,45.28
2023-03-17T07:25:08.631Z,48.53
2023-03-17T07:28:22.674Z,46.60
2023-03-17T07:31:37.546Z,50.05
2023-03-17T07:34:50.492Z,39.95
2023-03-17T07:38:05.364Z,44.33
2023-03-17T07:41:17.506Z,42.05
2023-03-17T07:44:30.461Z,44.03
2023-03-17T07:47:42.843Z,40.80
2023-03-17T07:50:54.919Z,40.98
2023-03-17T07:54:08.255Z,37.28
2023-03-17T07:57:20.930Z,63.83
2023-03-17T08:00:34.920Z,81.78
2023-03-17T08:03:48.084Z,45.15
2023-03-17T08:07:01.718Z,40.55
2023-03-17T08:10:18.498Z,39.28
2023-03-17T08:13:30.701Z,35.78
2023-03-17T08:16:43.059Z,35.08
2023-03-17T08:19:55.170Z,29.50
2023-03-17T08:23:07.602Z,15.33
2023-03-17T08:26:20.774Z,12.70
2023-03-17T08:29:33.773Z,13.25
2023-03-17T08:32:46.513Z,13.28
2023-03-17T08:35:59.255Z,15.15
2023-03-17T08:39:11.932Z,13.38
2023-03-17T08:42:24.055Z,17.70
2023-03-17T08:45:37.032Z,13.03
2023-03-17T08:48:51.078Z,12.10
2023-03-17T08:52:03.591Z,13.18
2023-03-17T08:55:17.964Z,9.85
2023-03-17T08:58:30.717Z,15.55
2023-03-17T09:01:45.063Z,13.60
2023-03-17T09:04:57.973Z,10.35
2023-03-17T09:08:10.115Z,11.63
2023-03-17T09:11:24.715Z,9.38
2023-03-17T09:14:43.532Z,10.40
2023-03-17T09:17:51.035Z,20.30
2023-03-17T09:21:03.724Z,14.73
2023-03-17T09:24:16.678Z,14.33
2023-03-17T09:27:28.813Z,12.88
2023-03-17T09:30:42.670Z,6.90
2023-03-17T09:33:56.633Z,9.65
2023-03-17T09:37:10.104Z,6.73
2023-03-17T09:40:28.541Z,7.33
2023-03-17T09:43:46.846Z,6.38
2023-03-17T09:47:07.014Z,7.78
2023-03-17T09:50:23.937Z,7.50
2023-03-17T09:53:40.088Z,8.08
2023-03-17T09:56:57.897Z,7.73
2023-03-17T10:00:19.131Z,23.02
2023-03-17T10:03:32.663Z,27.28
2023-03-17T10:06:48.625Z,7.50
2023-03-17T10:10:08.856Z,8.20
2023-03-17T10:13:35.824Z,8.10
2023-03-17T10:16:54.748Z,10.48
2023-03-17T10:20:11.733Z,10.03
2023-03-17T10:23:28.130Z,12.73
2023-03-17T10:26:46.222Z,22.53
2023-03-17T10:29:58.409Z,12.93
2023-03-17T10:33:12.547Z,11.53
2023-03-17T10:36:37.948Z,8.75
2023-03-17T10:39:56.283Z,10.23
2023-03-17T10:43:15.751Z,9.85
2023-03-17T10:46:31.455Z,9.53
2023-03-17T10:49:44.567Z,10.70
2023-03-17T10:53:03.531Z,8.50
2023-03-17T10:56:25.910Z,6.65
2023-03-17T10:59:44.921Z,19.93
2023-03-17T11:03:01.843Z,15.80
2023-03-17T11:06:16.991Z,11.30
2023-03-17T11:09:29.539Z,7.78
2023-03-17T11:12:46.458Z,10.25
2023-03-17T11:19:18.866Z,6.48
2023-03-17T11:22:38.228Z,7.85
2023-03-17T11:25:57.090Z,9.40
2023-03-17T11:29:29.222Z,7.55
2023-03-17T11:32:46.089Z,9.03
2023-03-17T11:39:19.086Z,7.15
2023-03-17T11:42:37.475Z,12.23
2023-03-17T11:45:55.079Z,16.60
2023-03-17T11:49:14.972Z,34.83
2023-03-17T11:52:32.703Z,16.23
2023-03-17T11:55:51.802Z,9.58
2023-03-17T11:59:08.855Z,7.35
2023-03-17T12:02:32.669Z,7.20
2023-03-17T12:05:47.362Z,8.45
2023-03-17T12:09:06.544Z,8.10
2023-03-17T12:12:22.349Z,6.30
2023-03-17T12:15:40.447Z,6.58
2023-03-17T12:19:00.849Z,6.65
2023-03-17T12:22:21.333Z,6.93
2023-03-17T12:25:37.528Z,10.85
2023-03-17T12:28:57.438Z,10.80
2023-03-17T12:32:17.388Z,10.00
2023-03-17T12:35:37.112Z,9.90
2023-03-17T12:38:57.315Z,8.73
2023-03-17T12:42:21.076Z,9.30
2023-03-17T12:45:57.496Z,8.63
2023-03-17T12:49:54.303Z,8.83
2023-03-17T12:53:31.045Z,8.90
2023-03-17T12:56:49.015Z,7.60
2023-03-17T13:00:10.329Z,10.83
2023-03-17T13:03:30.695Z,10.40
2023-03-17T13:06:49.196Z,10.88
2023-03-17T13:10:44.815Z,11.48
2023-03-17T13:14:23.351Z,8.80
2023-03-17T13:17:41.530Z,10.15
2023-03-17T13:21:13.896Z,7.43
2023-03-17T13:24:51.957Z,9.75
2023-03-17T13:28:28.036Z,10.05
2023-03-17T13:31:44.517Z,9.43
2023-03-17T13:34:59.624Z,14.08
2023-03-17T13:38:36.817Z,9.50
2023-03-17T13:42:30.235Z,10.38
2023-03-17T13:45:48.324Z,9.05
2023-03-17T13:49:01.746Z,8.05
2023-03-17T13:52:19.540Z,6.33
2023-03-17T13:55:46.125Z,10.08
2023-03-17T13:59:05.959Z,13.80
2023-03-17T14:02:24.913Z,14.68
2023-03-17T14:05:40.707Z,7.35
2023-03-17T14:08:58.021Z,7.90
2023-03-17T14:12:17.901Z,11.28
2023-03-17T14:15:35.269Z,8.30
2023-03-17T14:18:50.106Z,9.28
2023-03-17T14:22:08.858Z,11.00
2023-03-17T14:25:26.212Z,9.93
2023-03-17T14:28:40.672Z,7.90
2023-03-17T14:32:00.599Z,10.88
2023-03-17T14:35:19.003Z,7.93
2023-03-17T14:38:35.013Z,8.70
2023-03-17T14:41:47.033Z,8.20
2023-03-17T14:45:08.868Z,10.28
2023-03-17T14:48:25.418Z,109.25
2023-03-17T14:51:40.367Z,14.68
2023-03-17T14:54:56.406Z,11.00
2023-03-17T14:58:16.554Z,11.70
2023-03-17T15:01:39.720Z,7.83
2023-03-17T15:05:00.416Z,8.88
2023-03-17T15:08:46.297Z,7.63
2023-03-17T15:12:01.084Z,8.55
2023-03-17T15:15:25.912Z,9.35
2023-03-17T15:18:38.033Z,7.60
2023-03-17T15:21:50.748Z,14.13
2023-03-17T15:25:21.068Z,8.03
2023-03-17T15:28:37.016Z,10.85
2023-03-17T15:31:49.243Z,32.65
2023-03-17T15:35:05.096Z,13.38
2023-03-17T15:38:19.029Z,9.00
2023-03-17T15:41:31.370Z,11.15
2023-03-17T15:44:43.720Z,10.98
2023-03-17T15:47:56.360Z,13.90
2023-03-17T15:51:10.360Z,13.85
2023-03-17T15:54:23.033Z,57.90
2023-03-17T15:57:35.281Z,19.50
2023-03-17T16:00:49.935Z,14.85
2023-03-17T16:04:02.129Z,11.70
2023-03-17T16:07:18.982Z,15.00
2023-03-17T16:10:34.626Z,10.98
2023-03-17T16:13:46.906Z,12.63
2023-03-17T16:16:59.108Z,12.30
2023-03-17T16:20:16.898Z,12.28
2023-03-17T16:23:31.944Z,14.95
2023-03-17T16:26:45.087Z,15.30
2023-03-17T16:29:57.512Z,16.48
2023-03-17T16:33:18.470Z,16.53
2023-03-17T16:36:32.279Z,14.50
2023-03-17T16:39:45.289Z,14.30
2023-03-17T16:42:59.532Z,16.35
2023-03-17T16:46:14.475Z,15.13
2023-03-17T16:49:27.597Z,16.70
2023-03-17T16:52:40.054Z,15.55
2023-03-17T16:55:53.192Z,24.35
2023-03-17T16:59:06.064Z,24.95
2023-03-17T17:02:23.523Z,19.13
2023-03-17T17:05:37.073Z,20.13
2023-03-17T17:08:51.695Z,20.70
2023-03-17T17:12:04.014Z,25.58
2023-03-17T17:15:21.140Z,26.03
2023-03-17T17:18:35.410Z,26.05
2023-03-17T17:21:48.825Z,21.93
2023-03-17T17:25:01.389Z,23.13
2023-03-17T17:28:14.683Z,20.73
2023-03-17T17:31:27.111Z,23.98
2023-03-17T17:34:39.944Z,22.30
2023-03-17T17:37:52.428Z,32.03
2023-03-17T17:41:09.137Z,26.20
2023-03-17T17:44:21.278Z,27.45
2023-03-17T17:47:34.602Z,29.03
2023-03-17T17:50:47.008Z,26.78
2023-03-17T17:53:59.276Z,24.30
2023-03-17T17:57:12.108Z,22.23
2023-03-17T18:00:26.282Z,28.18
2023-03-17T18:03:40.507Z,23.75
2023-03-17T18:06:53.618Z,25.85
2023-03-17T18:10:06.184Z,26.55
2023-03-17T18:13:18.579Z,33.43
2023-03-17T18:16:31.638Z,26.50
2023-03-17T18:19:44.217Z,26.35
2023-03-17T18:22:56.945Z,25.95
2023-03-17T18:26:10.850Z,22.95
2023-03-17T18:29:23.473Z,21.50
2023-03-17T18:32:36.564Z,24.28
2023-03-17T18:35:51.146Z,24.03
2023-03-17T18:39:04.430Z,22.95
2023-03-17T18:42:17.627Z,25.33
2023-03-17T18:45:29.922Z,27.85
2023-03-17T18:48:42.341Z,25.95
2023-03-17T18:51:54.549Z,27.70
2023-03-17T18:55:07.477Z,30.75
2023-03-17T18:58:19.589Z,32.03
2023-03-17T19:01:32.454Z,29.50
2023-03-17T19:04:47.178Z,29.50
2023-03-17T19:07:59.449Z,37.00
2023-03-17T19:11:13.659Z,36.98
2023-03-17T19:14:25.908Z,34.65
2023-03-17T19:17:39.166Z,29.55
2023-03-17T19:20:51.507Z,32.38
2023-03-17T19:24:06.377Z,28.85
2023-03-17T19:27:18.576Z,31.78
2023-03-17T19:30:31.674Z,34.28
2023-03-17T19:33:44.666Z,29.55
2023-03-17T19:36:57.136Z,36.23
2023-03-17T19:40:13.456Z,30.75
2023-03-17T19:43:39.394Z,37.15
2023-03-17T19:46:41.526Z,34.80
2023-03-17T19:49:54.056Z,33.98
2023-03-17T19:53:06.452Z,35.88
2023-03-17T19:56:18.652Z,34.38
2023-03-17T19:59:31.183Z,36.28
2023-03-17T20:02:43.588Z,41.00
2023-03-17T20:05:57.542Z,38.23
2023-03-17T20:09:10.748Z,37.68
2023-03-17T20:12:22.901Z,40.13
2023-03-17T20:15:35.531Z,40.10
2023-03-17T20:18:47.902Z,43.18
2023-03-17T20:22:00.527Z,46.35
2023-03-17T20:25:15.649Z,47.05
2023-03-17T20:28:30.073Z,46.60
2023-03-17T20:31:43.879Z,37.38
2023-03-17T20:34:57.114Z,41.28
2023-03-17T20:38:10.086Z,37.15
2023-03-17T20:41:24.793Z,36.38
2023-03-17T20:44:36.930Z,36.95
2023-03-17T20:47:49.419Z,34.55
2023-03-17T20:51:04.042Z,33.53
2023-03-17T20:54:17.960Z,30.85
2023-03-17T20:57:30.447Z,33.35
2023-03-17T21:00:43.067Z,28.18
2023-03-17T21:03:56.628Z,28.90
2023-03-17T21:07:09.148Z,27.80
2023-03-17T21:10:22.619Z,29.55
2023-03-17T21:13:35.412Z,26.33
2023-03-17T21:16:48.556Z,27.85
2023-03-17T21:20:00.915Z,29.43
2023-03-17T21:23:13.443Z,27.70
2023-03-17T21:26:26.350Z,26.20
2023-03-17T21:29:40.508Z,29.43
2023-03-17T21:32:53.767Z,29.23
2023-03-17T21:36:06.645Z,33.15
2023-03-17T21:39:21.332Z,32.88
2023-03-17T21:42:33.844Z,37.38
2023-03-17T21:45:46.893Z,32.43
2023-03-17T21:48:59.400Z,30.93
2023-03-17T21:52:12.704Z,32.75
2023-03-17T21:55:25.474Z,27.33
2023-03-17T21:58:37.694Z,35.33
2023-03-17T22:01:52.205Z,34.35
2023-03-17T22:05:04.719Z,30.55
2023-03-17T22:08:17.034Z,40.63
2023-03-17T22:11:29.529Z,34.03
2023-03-17T22:14:42.203Z,35.18
2023-03-17T22:17:54.474Z,34.60
2023-03-17T22:21:08.242Z,31.73
2023-03-17T22:24:21.484Z,32.83
2023-03-17T22:27:33.702Z,40.85
2023-03-17T22:30:46.358Z,30.90
2023-03-17T22:34:02.241Z,34.43
2023-03-17T22:37:18.444Z,36.83
2023-03-17T22:40:33.071Z,38.90
2023-03-17T22:43:46.833Z,33.78
2023-03-17T22:46:59.359Z,34.68
2023-03-17T22:50:13.503Z,34.63
2023-03-17T22:53:25.769Z,37.93
2023-03-17T22:56:37.938Z,32.18
2023-03-17T22:59:52.058Z,31.60
2023-03-17T23:03:04.098Z,31.43
2023-03-17T23:06:19.582Z,32.85
2023-03-17T23:09:31.741Z,38.88
2023-03-17T23:12:44.004Z,31.45
2023-03-17T23:15:56.561Z,40.60
2023-03-17T23:19:08.738Z,34.00
2023-03-17T23:22:21.617Z,33.10
2023-03-17T23:25:34.043Z,33.58
2023-03-17T23:28:46.557Z,33.58
2023-03-17T23:31:58.825Z,36.95
2023-03-17T23:35:12.724Z,35.98
2023-03-17T23:38:25.834Z,32.45
2023-03-17T23:41:37.901Z,32.65
2023-03-17T23:44:50.453Z,31.78
2023-03-17T23:48:03.178Z,30.65
2023-03-17T23:51:16.275Z,37.80
2023-03-17T23:54:28.848Z,35.25
2023-03-17T23:57:41.624Z,38.35
